Hawaii METAR Reports

 

PHOG - Kahului, Hawaii, USA
Distance from station: WNW 8mi, 13km
Updated: Thu, 21-Sep-2017 9:54pm HST
Clear
Clear
 Wind from NE
Wind: NE 13 mph , 20 km/h
Temperature: 77°F , 25°C
Dew Point: 66°F , 19°C
Humidity: 69%
Barometer: 30.06 inHg , 1017.9 hPa
Clouds: Clear
Visibility: 10 miles , 16 km
2017/09/22 07:54 PHOG 220754Z 04011KT 10SM CLR 25/19 A3006 RMK AO2 SLP183 T02500194 $
PHJH - Lahaina/West Mau, Hawaii, USA
Distance from station: WNW 24mi, 39km
Updated: Thu, 21-Sep-2017 5:50pm HST
NOT Current
Partly Cloudy
Partly Cloudy
 Wind from NNE
Wind: NNE 17 mph , 28 km/h, Gust: 24 mph , 39 km/h
Temperature: 81°F , 27°C
Heat Index: 83°F , 28°C
Dew Point: 64°F , 18°C
Humidity: 58%
Barometer: 30.01 inHg , 1016.3 hPa
Clouds: Partly Cloudy
Visibility: 15 miles , 24 km
Cloud details: Few Clouds 3000 ft
Partly Cloudy 4500 ft
2017/09/22 03:50 PHJH 220350Z 02015G21KT 15SM FEW030 SCT045 27/18 A3001 RMK LAST
 
PHNY - Lanai City Airpo, Hawaii, USA
Distance from station: W 40mi, 65km
Updated: Thu, 21-Sep-2017 9:56pm HST
Clear
Clear
 Wind from NNE
Wind: NNE 15 mph , 24 km/h
Temperature: 72°F , 22°C
Dew Point: 66°F , 19°C
Humidity: 83%
Barometer: 30.10 inHg , 1019.3 hPa
Clouds: Clear
Visibility: 10 miles , 16 km
2017/09/22 07:56 PHNY 220756Z AUTO 03013KT 10SM CLR 22/19 A3010 RMK AO2 PK WND 04027/0728 SLP171 T02220189
PHMK - Molokai, Hawaii, USA
Distance from station: WNW 55mi, 88km
Updated: Thu, 21-Sep-2017 9:54pm HST
Clear
Clear
 Wind from NE
Wind: NE 13 mph , 20 km/h, Gust: 21 mph , 33 km/h
Temperature: 77°F , 25°C
Dew Point: 66°F , 19°C
Humidity: 69%
Barometer: 30.08 inHg , 1018.6 hPa
Clouds: Clear
Visibility: 10 miles , 16 km
2017/09/22 07:54 PHMK 220754Z AUTO 05011G18KT 10SM CLR 25/19 A3008 RMK AO2 SLP187 T02500194 TSNO
 
PHKO - Kailua/Kona, Hawaii, USA
Distance from station: SSE 79mi, 128km
Updated: Thu, 21-Sep-2017 9:53pm HST
Few Clouds
Few Clouds
 Wind from calm
Wind: Calm
Temperature: 79°F , 26°C
Dew Point: 66°F , 19°C
Humidity: 65%
Barometer: 30.00 inHg , 1015.9 hPa
Clouds: Few Clouds
Visibility: 10 miles , 16 km
Cloud details: Few Clouds 6500 ft
2017/09/22 07:53 PHKO 220753Z 00000KT 10SM FEW065 26/19 A3000 RMK AO2 SLP160 T02610194
PHSF - Bradshaw Aaf/Haw, Hawaii, USA
Distance from station: SE 90mi, 145km
Updated: Thu, 21-Sep-2017 9:56pm HST
Clear
Clear
 Wind from SSE
Wind: SSE 3 mph , 6 km/h
Temperature: 52°F , 11°C
Dew Point: 48°F , 9°C
Humidity: 88%
Barometer: 30.36 inHg , 1028.1 hPa
Clouds: Clear
Visibility: 10 miles , 16 km
2017/09/22 07:56 PHSF 220756Z AUTO 16003KT 10SM CLR 11/09 A3036 RMK AO2 SLP168 WND DATA ESTMD T01100094 $
 
PHNG - Kaneohe Mcas, Hawaii, USA
Distance from station: WNW 102mi, 164km
Updated: Thu, 21-Sep-2017 9:57pm HST
Partly Cloudy
Partly Cloudy
 Wind from ENE
Wind: ENE 10 mph , 17 km/h
Temperature: 81°F , 27°C
Heat Index: 84°F , 29°C
Dew Point: 68°F , 20°C
Humidity: 66%
Barometer: 30.05 inHg , 1017.6 hPa
Clouds: Partly Cloudy
Visibility: 7 miles , 11 km
Cloud details: Few Clouds 2500 ft
Partly Cloudy 3500 ft
2017/09/22 07:57 PHNG 220757Z 07009KT 7SM FEW025 SCT035 27/20 A3005 RMK SLP170 T02720200
PHNL - Honolulu, Hawaii, USA
Distance from station: WNW 108mi, 174km
Updated: Thu, 21-Sep-2017 9:53pm HST
Few Clouds
Few Clouds
 Wind from ENE
Wind: ENE 12 mph , 19 km/h
Temperature: 81°F , 27°C
Heat Index: 83°F , 28°C
Dew Point: 64°F , 18°C
Humidity: 58%
Barometer: 30.06 inHg , 1017.9 hPa
Clouds: Few Clouds
Visibility: 10 miles , 16 km
Cloud details: Few Clouds 2600 ft
Few Clouds 3600 ft
2017/09/22 07:53 PHNL 220753Z 07010KT 10SM FEW026 FEW036 27/18 A3006 RMK AO2 SLP179 T02670178
 
PHTO - Hilo, Hawaii, USA
Distance from station: SE 114mi, 183km
Updated: Thu, 21-Sep-2017 9:53pm HST
Mostly Cloudy
Mostly Cloudy
 Wind from SW
Wind: SW 7 mph , 11 km/h
Temperature: 72°F , 22°C
Dew Point: 66°F , 19°C
Humidity: 83%
Barometer: 30.07 inHg , 1018.3 hPa
Clouds: Mostly Cloudy
Visibility: 10 miles , 16 km
Cloud details: Partly Cloudy 2900 ft
Partly Cloudy 3700 ft
Mostly Cloudy 4600 ft
2017/09/22 07:53 PHTO 220753Z 23006KT 10SM SCT029 SCT037 BKN046 22/19 A3007 RMK AO2 SLP180 T02220189
PHJR - Kalaeloa, Hawaii, USA
Distance from station: WNW 117mi, 189km
Updated: Thu, 21-Sep-2017 9:53pm HST
Clear
Clear
 Wind from ENE
Wind: ENE 7 mph , 11 km/h
Temperature: 79°F , 26°C
Dew Point: 63°F , 17°C
Humidity: 58%
Barometer: 30.07 inHg , 1018.3 hPa
Clouds: Clear
Visibility: 10 miles , 16 km
2017/09/22 07:53 PHJR 220753Z 07006KT 10SM CLR 26/17 A3007 RMK AO2 SLP189 T02560172
 
PHHI - Wheeler Afb/Oahu, Hawaii, USA
Distance from station: WNW 120mi, 193km
Updated: Thu, 21-Sep-2017 9:58pm HST
Few Clouds
Few Clouds
 Wind from calm
Wind: Calm
Temperature: 75°F , 24°C
Dew Point: 66°F , 19°C
Humidity: 74%
Barometer: 30.08 inHg , 1018.6 hPa
Clouds: Few Clouds
Visibility: 10 miles , 16 km
Cloud details: Few Clouds 4100 ft
2017/09/22 07:58 PHHI 220758Z AUTO 00000KT 10SM FEW041 24/19 A3008 RMK AO2 SLP175 T02350186 $
PHLI - Lihue/Kauai Is, Hawaii, USA
Distance from station: WNW 209mi, 336km
Updated: Thu, 21-Sep-2017 9:53pm HST
Partly Cloudy
Partly Cloudy
 Wind from ENE
Wind: ENE 14 mph , 22 km/h
Temperature: 81°F , 27°C
Heat Index: 85°F , 29°C
Dew Point: 70°F , 21°C
Humidity: 70%
Barometer: 30.10 inHg , 1019.3 hPa
Clouds: Partly Cloudy
Visibility: 10 miles , 16 km
Cloud details: Partly Cloudy 5000 ft
2017/09/22 07:53 PHLI 220753Z 06012KT 10SM SCT050 27/21 A3010 RMK AO2 SLP188 LAST T02670206
 
PHBK - Barking Sands/Ka, Hawaii, USA
Distance from station: WNW 237mi, 382km
Updated: Thu, 21-Sep-2017 9:56pm HST
Clear
Clear
 Wind from calm
Wind: Calm
Temperature: 77°F , 25°C
Dew Point: 63°F , 17°C
Humidity: 61%
Barometer: 30.06 inHg , 1017.9 hPa
Clouds: Clear
Visibility: 10 miles , 16 km
2017/09/22 07:56 PHBK 220756Z AUTO 00000KT 10SM CLR 25/17 A3006 RMK AO2 SLP182 T02500167